Time;durP1;ratioP1;P1;durP2;ratioP2;P2;SDS_P1;SDS_P2;PMS_P1;PMS_P2;Temp;Humidity;BMP_temperature;BMP_pressure;BME280_temperature;BME280_humidity;BME280_pressure;Samples;Min_cycle;Max_cycle;Signal;HPM_P1;HPM_P2
2022/01/04 00:02:23;;;;;;;2.47;1.27;;;;;;;5.70;89.90;99804.63;7400613;19;20022;-65
2022/01/04 00:04:52;;;;;;;5.30;2.05;;;;;;;5.71;89.76;99795.94;7401803;19;20023;-66
2022/01/04 00:07:20;;;;;;;4.68;1.05;;;;;;;5.72;89.80;99791.56;7402145;19;20018;-65
2022/01/04 00:09:51;;;;;;;3.05;1.58;;;;;;;5.73;89.77;99785.50;7402025;19;20027;-65
2022/01/04 00:15:02;;;;;;;2.30;1.20;;;;;;;5.75;90.07;99785.47;7401605;19;20502;-66
2022/01/04 00:17:31;;;;;;;2.42;1.00;;;;;;;5.75;90.06;99765.50;7402351;19;20027;-66
2022/01/04 00:19:59;;;;;;;2.38;1.13;;;;;;;5.75;89.89;99769.84;7401664;19;20011;-65
2022/01/04 00:22:27;;;;;;;2.97;1.00;;;;;;;5.76;90.06;99769.81;7401574;19;20014;-65
2022/01/04 00:24:55;;;;;;;4.03;1.00;;;;;;;5.76;89.94;99766.34;7401184;19;20030;-66
2022/01/04 00:27:23;;;;;;;2.15;1.10;;;;;;;5.77;90.10;99752.47;7401142;19;20484;-65
2022/01/04 00:29:52;;;;;;;5.03;1.48;;;;;;;5.73;90.12;99745.59;7401355;19;20010;-66
2022/01/04 00:32:23;;;;;;;1.88;1.13;;;;;;;5.76;89.90;99741.19;7401322;19;20015;-65
2022/01/04 00:34:52;;;;;;;4.07;1.30;;;;;;;5.77;89.98;99742.06;7401263;19;20010;-66
2022/01/04 00:37:20;;;;;;;3.80;1.35;;;;;;;5.76;90.08;99740.34;7400781;19;20475;-65
2022/01/04 00:39:48;;;;;;;2.65;1.48;;;;;;;5.76;90.35;99735.13;7400687;19;20377;-65
2022/01/04 00:42:16;;;;;;;2.53;1.20;;;;;;;5.76;90.26;99729.91;7399674;19;20011;-65
2022/01/04 00:44:45;;;;;;;2.03;1.02;;;;;;;5.75;90.32;99742.09;7400704;19;20035;-65
2022/01/04 00:47:13;;;;;;;3.67;1.30;;;;;;;5.75;90.39;99733.41;7398432;19;20032;-66
2022/01/04 00:49:41;;;;;;;3.20;1.17;;;;;;;5.72;90.20;99726.50;7400383;19;20479;-65
2022/01/04 00:52:14;;;;;;;3.58;1.13;;;;;;;5.71;90.53;99728.28;7400719;19;20014;-65
2022/01/04 00:54:42;;;;;;;4.38;1.63;;;;;;;5.70;90.39;99718.75;7400934;19;20110;-66
2022/01/04 00:57:11;;;;;;;3.15;1.42;;;;;;;5.69;90.49;99717.00;7400137;19;20494;-65
2022/01/04 00:59:39;;;;;;;3.22;1.00;;;;;;;5.68;90.62;99711.84;7400450;19;20370;-66
2022/01/04 01:02:07;;;;;;;4.20;1.30;;;;;;;5.68;90.72;99704.88;7400355;19;20015;-66
2022/01/04 01:04:35;;;;;;;1.80;1.05;;;;;;;5.67;90.65;99700.59;7400299;19;20014;-66
2022/01/04 01:07:06;;;;;;;9.30;1.55;;;;;;;5.68;90.71;99691.88;7397624;19;20019;-66
2022/01/04 01:09:42;;;;;;;2.65;1.25;;;;;;;5.68;90.82;99685.81;7400494;19;20034;-65
2022/01/04 01:12:12;;;;;;;1.75;1.00;;;;;;;5.68;90.96;99678.84;7400128;19;20018;-66
2022/01/04 01:14:40;;;;;;;2.42;1.13;;;;;;;5.69;91.24;99680.59;7398743;19;20028;-65
2022/01/04 01:17:08;;;;;;;2.97;1.15;;;;;;;5.69;91.05;99672.78;7397330;19;20019;-66
2022/01/04 01:19:37;;;;;;;3.13;1.40;;;;;;;5.70;91.21;99669.28;7399805;19;20014;-66
2022/01/04 01:22:08;;;;;;;3.72;1.42;;;;;;;5.73;91.22;99667.53;7399596;19;20014;-65
2022/01/04 01:24:36;;;;;;;4.10;1.40;;;;;;;5.74;91.37;99674.41;7400007;19;20011;-66
2022/01/04 01:27:05;;;;;;;3.67;0.90;;;;;;;5.75;91.61;99665.72;7396987;19;20035;-65
2022/01/04 01:29:33;;;;;;;4.85;1.60;;;;;;;5.76;91.69;99657.88;7399084;19;20515;-66
2022/01/04 01:32:01;;;;;;;2.90;1.23;;;;;;;5.77;91.50;99656.16;7399251;19;20028;-66
2022/01/04 01:34:30;;;;;;;5.07;1.65;;;;;;;5.79;91.48;99651.78;7398935;19;20486;-66
2022/01/04 01:36:58;;;;;;;3.47;1.35;;;;;;;5.79;91.71;99652.63;7397102;19;20023;-66
2022/01/04 01:39:29;;;;;;;1.58;1.30;;;;;;;5.82;91.71;99646.50;7399135;19;20024;-65
2022/01/04 01:41:57;;;;;;;2.50;1.65;;;;;;;5.84;91.89;99645.59;7398535;19;20027;-65
2022/01/04 01:44:26;;;;;;;4.07;1.73;;;;;;;5.86;91.86;99632.53;7398602;19;20504;-65
2022/01/04 01:46:54;;;;;;;3.22;1.58;;;;;;;5.84;91.62;99629.97;7396655;19;20027;-65
2022/01/04 01:49:23;;;;;;;6.82;1.65;;;;;;;5.87;91.90;99640.31;7398686;19;20010;-65
2022/01/04 01:51:51;;;;;;;3.55;1.55;;;;;;;5.87;91.83;99635.09;7398887;19;20028;-65
2022/01/04 01:54:19;;;;;;;3.53;1.67;;;;;;;5.87;91.89;99626.47;7398287;19;20353;-65
2022/01/04 01:56:50;;;;;;;3.78;1.30;;;;;;;5.88;91.87;99623.81;7397065;19;20014;-65
2022/01/04 01:59:19;;;;;;;2.10;1.10;;;;;;;5.89;91.88;99619.47;7398882;19;20023;-65
2022/01/04 02:01:47;;;;;;;4.30;1.65;;;;;;;5.89;91.91;99616.88;7397979;19;20381;-65
2022/01/04 02:04:15;;;;;;;4.28;1.80;;;;;;;5.91;92.02;99609.88;7397853;19;20524;-65
2022/01/04 02:06:43;;;;;;;3.13;1.63;;;;;;;5.92;92.24;99611.59;7396308;19;20022;-65
2022/01/04 02:09:11;;;;;;;3.90;1.48;;;;;;;5.93;92.22;99602.06;7398081;19;20015;-65
2022/01/04 02:11:47;;;;;;;4.85;1.55;;;;;;;5.95;92.37;99598.53;7397639;19;20374;-65
2022/01/04 02:14:19;;;;;;;5.25;1.58;;;;;;;5.96;92.41;99592.41;7400131;19;20357;-66
2022/01/04 02:16:47;;;;;;;4.07;2.55;;;;;;;5.98;92.30;99588.06;7396242;19;20018;-66
2022/01/04 02:19:16;;;;;;;4.18;1.70;;;;;;;5.99;92.43;99581.97;7397381;19;20475;-66
2022/01/04 02:21:47;;;;;;;3.08;1.63;;;;;;;6.00;92.46;99575.88;7397639;19;20018;-66
2022/01/04 02:24:15;;;;;;;2.72;1.50;;;;;;;6.02;92.36;99573.25;7396325;19;20023;-66
2022/01/04 02:26:44;;;;;;;3.92;1.77;;;;;;;6.02;92.43;99563.66;7394823;19;20014;-66
2022/01/04 02:29:12;;;;;;;3.28;1.73;;;;;;;6.04;92.42;99566.28;7397432;19;20024;-66
2022/01/04 02:31:41;;;;;;;2.45;1.88;;;;;;;6.05;92.39;99549.72;7396959;19;20479;-66
2022/01/04 02:34:09;;;;;;;2.50;1.30;;;;;;;6.06;92.43;99550.59;7397276;19;20031;-66
2022/01/04 02:36:42;;;;;;;6.78;2.17;;;;;;;6.07;92.36;99542.75;7395717;19;20010;-66
2022/01/04 02:39:19;;;;;;;4.80;1.77;;;;;;;6.07;92.34;99539.31;7397552;19;20035;-66
2022/01/04 02:41:47;;;;;;;3.17;2.00;;;;;;;6.10;92.56;99536.63;7396445;19;20479;-66
2022/01/04 02:44:15;;;;;;;4.50;1.83;;;;;;;6.10;92.36;99531.41;7395085;19;20535;-66
2022/01/04 02:46:44;;;;;;;2.70;1.77;;;;;;;6.09;92.42;99529.69;7395282;19;20022;-66
2022/01/04 02:49:12;;;;;;;4.10;2.00;;;;;;;6.10;92.46;99521.00;7396809;19;20035;-66
2022/01/04 02:51:40;;;;;;;3.03;1.77;;;;;;;6.08;92.33;99528.84;7396717;19;20018;-66
2022/01/04 02:54:08;;;;;;;4.00;1.88;;;;;;;6.09;92.45;99534.91;7396290;19;20351;-66
2022/01/04 02:56:39;;;;;;;4.03;1.98;;;;;;;6.08;92.49;99527.97;7395162;19;20018;-66
2022/01/04 02:59:07;;;;;;;3.65;1.70;;;;;;;6.08;92.34;99530.56;7397006;19;20014;-66
2022/01/04 03:01:35;;;;;;;3.60;2.00;;;;;;;6.07;92.43;99528.88;7396418;19;20014;-66
2022/01/04 03:04:04;;;;;;;4.38;2.10;;;;;;;6.07;92.43;99523.69;7396542;19;20022;-66
2022/01/04 03:06:32;;;;;;;4.30;2.17;;;;;;;6.06;92.44;99522.81;7394818;19;20043;-66
2022/01/04 03:09:00;;;;;;;4.53;1.77;;;;;;;6.05;92.55;99521.09;7396216;19;20386;-66
2022/01/04 03:11:28;;;;;;;5.25;1.83;;;;;;;6.03;92.66;99513.31;7395955;19;20032;-66
2022/01/04 03:13:59;;;;;;;4.55;2.13;;;;;;;6.00;92.66;99512.53;7396775;19;20011;-66
2022/01/04 03:16:27;;;;;;;3.85;1.90;;;;;;;6.04;92.60;99519.41;7395053;19;20019;-66
2022/01/04 03:19:06;;;;;;;3.30;2.58;;;;;;;6.05;92.95;99504.63;7397812;19;20014;-66
2022/01/04 03:21:35;;;;;;;3.58;1.98;;;;;;;6.05;92.80;99499.41;7399108;19;20015;-67
2022/01/04 03:24:05;;;;;;;5.03;2.00;;;;;;;6.07;93.01;99500.25;7397940;19;20375;-66
2022/01/04 03:26:34;;;;;;;2.60;1.77;;;;;;;6.06;92.81;99488.09;7395306;19;20028;-66
2022/01/04 03:29:06;;;;;;;4.93;2.10;;;;;;;6.07;92.98;99485.47;7396482;19;20082;-67
2022/01/04 03:31:35;;;;;;;3.83;2.10;;;;;;;6.07;93.06;99477.66;7396749;19;20018;-66
2022/01/04 03:34:03;;;;;;;3.95;2.00;;;;;;;6.08;93.04;99470.69;7395201;19;20019;-66
2022/01/04 03:36:32;;;;;;;4.55;2.17;;;;;;;6.10;93.16;99469.75;7392928;19;20018;-66
2022/01/04 03:39:04;;;;;;;3.50;2.13;;;;;;;6.10;93.20;99469.75;7395226;19;20010;-66
2022/01/04 03:41:33;;;;;;;3.13;1.60;;;;;;;6.11;93.15;99468.03;7395645;19;20029;-66
2022/01/04 03:44:05;;;;;;;3.17;1.95;;;;;;;6.10;93.05;99466.31;7393232;19;20010;-66
2022/01/04 03:46:33;;;;;;;3.97;2.10;;;;;;;6.09;93.13;99464.59;7393834;19;20374;-66
2022/01/04 03:49:01;;;;;;;4.40;2.03;;;;;;;6.09;93.04;99457.66;7395092;19;20015;-66
2022/01/04 03:51:29;;;;;;;4.95;1.85;;;;;;;6.08;93.00;99449.84;7394518;19;20509;-66
2022/01/04 03:53:57;;;;;;;3.25;1.70;;;;;;;6.06;93.00;99449.91;7394859;19;20018;-66
2022/01/04 03:56:26;;;;;;;3.22;2.10;;;;;;;6.05;93.13;99447.34;7393330;19;20025;-66
2022/01/04 03:58:54;;;;;;;4.55;1.90;;;;;;;6.03;93.23;99442.16;7394616;19;20027;-66
2022/01/04 04:01:24;;;;;;;13.55;8.10;;;;;;;6.02;93.04;99440.44;7394681;19;20019;-66
2022/01/04 04:03:53;;;;;;;4.68;2.47;;;;;;;6.01;93.35;99438.75;7395101;19;20015;-66
2022/01/04 04:06:21;;;;;;;4.75;2.40;;;;;;;5.99;93.35;99430.97;7392667;19;20353;-66
2022/01/04 04:08:49;;;;;;;4.40;2.60;;;;;;;5.95;93.47;99425.81;7394339;19;20010;-66
2022/01/04 04:11:18;;;;;;;4.13;2.25;;;;;;;5.97;93.55;99422.28;7394442;19;20011;-66
2022/01/04 04:13:46;;;;;;;5.47;2.40;;;;;;;5.97;93.44;99418.84;7394469;19;20018;-66
2022/01/04 04:16:14;;;;;;;4.32;2.40;;;;;;;5.97;93.43;99417.09;7392811;19;20361;-66
2022/01/04 04:18:45;;;;;;;6.22;3.10;;;;;;;5.96;93.41;99414.53;7394424;19;20024;-66
2022/01/04 04:21:13;;;;;;;2.75;2.25;;;;;;;5.96;93.57;99409.31;7394649;19;20018;-66
2022/01/04 04:23:41;;;;;;;5.30;2.70;;;;;;;5.95;93.49;99413.69;7394138;19;20025;-66
2022/01/04 04:26:09;;;;;;;23.65;11.10;;;;;;;5.96;93.72;99412.78;7392506;19;20018;-66
2022/01/04 04:28:38;;;;;;;3.47;2.70;;;;;;;5.94;93.61;99408.50;7391457;19;20031;-66
2022/01/04 04:31:06;;;;;;;6.25;2.65;;;;;;;5.93;93.58;99394.63;7393288;19;20504;-66
2022/01/04 04:33:35;;;;;;;6.22;2.63;;;;;;;5.92;93.65;99386.88;7393394;19;20014;-66
2022/01/04 04:36:08;;;;;;;5.70;3.33;;;;;;;5.92;93.64;99390.31;7392082;19;20026;-66
2022/01/04 04:38:36;;;;;;;6.93;2.53;;;;;;;5.91;93.88;99382.56;7393736;19;20509;-66
2022/01/04 04:41:04;;;;;;;4.45;3.10;;;;;;;5.91;93.88;99378.19;7393350;19;20019;-66
2022/01/04 04:43:32;;;;;;;5.03;2.90;;;;;;;5.90;94.05;99373.88;7391549;19;20011;-65
2022/01/04 04:46:01;;;;;;;4.10;3.33;;;;;;;5.91;93.89;99377.34;7392037;19;20378;-64
2022/01/04 04:48:29;;;;;;;4.50;3.03;;;;;;;5.91;94.24;99374.75;7393882;19;20018;-65
2022/01/04 04:50:57;;;;;;;5.10;3.10;;;;;;;5.92;94.02;99376.47;7400612;19;20011;-65
2022/01/04 04:53:28;;;;;;;4.95;2.90;;;;;;;5.92;94.12;99366.88;7400507;19;20032;-65
2022/01/04 04:55:56;;;;;;;3.63;2.70;;;;;;;5.87;94.31;99353.97;7399593;19;20018;-65
2022/01/04 04:58:25;;;;;;;5.75;3.03;;;;;;;5.93;94.16;99362.56;7400143;19;20027;-65
2022/01/04 05:00:53;;;;;;;5.65;2.78;;;;;;;5.93;94.33;99352.97;7399825;19;20036;-65
2022/01/04 05:03:21;;;;;;;4.90;2.75;;;;;;;5.93;94.40;99347.78;7400071;19;20040;-65
2022/01/04 05:05:49;;;;;;;4.20;3.08;;;;;;;5.93;94.36;99347.78;7398616;19;20111;-65
2022/01/04 05:08:17;;;;;;;2.95;2.60;;;;;;;5.93;94.33;99339.13;7398087;19;20015;-65
2022/01/04 05:10:48;;;;;;;6.10;2.70;;;;;;;5.93;94.53;99337.38;7399412;19;20037;-65
2022/01/04 05:13:16;;;;;;;3.15;2.63;;;;;;;5.93;94.31;99336.53;7400129;19;20015;-65
2022/01/04 05:15:45;;;;;;;4.72;2.45;;;;;;;5.93;94.39;99333.91;7398198;19;20500;-66
2022/01/04 05:18:13;;;;;;;6.18;2.35;;;;;;;5.93;94.46;99331.31;7399678;19;20041;-65
2022/01/04 05:20:41;;;;;;;3.97;2.75;;;;;;;5.93;94.53;99333.91;7399357;19;20046;-66
2022/01/04 05:23:09;;;;;;;3.97;1.90;;;;;;;5.93;94.60;99324.34;7398921;19;20028;-66
2022/01/04 05:25:37;;;;;;;4.80;2.13;;;;;;;5.94;94.52;99314.78;7399120;19;20018;-66
2022/01/04 05:28:08;;;;;;;5.55;2.17;;;;;;;5.95;94.48;99313.88;7397869;19;20387;-66
2022/01/04 05:30:37;;;;;;;3.92;2.30;;;;;;;5.96;94.49;99320.81;7400277;19;20012;-65
2022/01/04 05:33:05;;;;;;;6.97;2.63;;;;;;;5.97;94.77;99312.09;7398274;19;20019;-66
2022/01/04 05:35:33;;;;;;;4.47;2.47;;;;;;;5.97;94.69;99310.34;7398920;19;20018;-66
2022/01/04 05:38:01;;;;;;;4.80;2.30;;;;;;;5.99;94.79;99315.53;7399323;19;20014;-66
2022/01/04 05:40:30;;;;;;;4.85;2.53;;;;;;;5.99;94.68;99313.81;7398434;19;20040;-66
2022/01/04 05:42:58;;;;;;;4.78;2.33;;;;;;;6.00;94.74;99302.50;7396869;19;20479;-67
2022/01/04 05:45:29;;;;;;;3.92;2.28;;;;;;;6.03;94.63;99293.75;7397600;19;20018;-64
2022/01/04 05:47:57;;;;;;;4.78;2.20;;;;;;;6.03;94.69;99286.78;7397037;19;20028;-65
2022/01/04 05:50:26;;;;;;;3.25;2.50;;;;;;;6.00;95.06;99279.06;7399268;19;20102;-65
2022/01/04 05:52:54;;;;;;;3.83;2.28;;;;;;;6.07;94.88;99276.31;7397829;19;20251;-66
2022/01/04 05:55:22;;;;;;;6.05;2.58;;;;;;;6.08;94.65;99272.78;7397135;19;20422;-65
2022/01/04 05:57:51;;;;;;;4.90;2.67;;;;;;;6.09;94.74;99271.91;7397263;19;20036;-66
2022/01/04 06:00:20;;;;;;;5.80;2.60;;;;;;;6.10;94.84;99266.63;7395782;19;20502;-65
2022/01/04 06:02:52;;;;;;;2.90;2.20;;;;;;;6.12;94.70;99266.63;7396922;19;20018;-65
2022/01/04 06:05:20;;;;;;;2.78;2.17;;;;;;;6.13;94.61;99255.28;7397563;19;20032;-66
2022/01/04 06:07:49;;;;;;;3.40;2.22;;;;;;;6.13;94.77;99255.28;7395328;19;20011;-65
2022/01/04 06:10:17;;;;;;;3.90;2.13;;;;;;;6.13;94.57;99250.94;7396532;19;20395;-66
2022/01/04 06:15:26;;;;;;;2.95;1.88;;;;;;;6.14;94.61;99233.56;7396958;19;20018;-66
2022/01/04 06:17:57;;;;;;;2.92;1.70;;;;;;;6.17;94.46;99236.09;7397512;19;20018;-67
2022/01/04 06:20:27;;;;;;;3.75;1.73;;;;;;;6.17;94.47;99229.13;7397951;19;20014;-66
2022/01/04 06:22:55;;;;;;;4.75;1.67;;;;;;;6.17;94.51;99225.69;7395402;19;20040;-65
2022/01/04 06:25:25;;;;;;;3.20;1.52;;;;;;;6.18;94.23;99222.19;7395982;19;20040;-67
2022/01/04 06:27:56;;;;;;;1.83;1.38;;;;;;;6.19;94.28;99224.75;7395525;19;20025;-66
2022/01/04 06:30:25;;;;;;;1.77;1.42;;;;;;;6.20;94.49;99212.56;7396340;19;20082;-66
2022/01/04 06:32:56;;;;;;;3.20;1.65;;;;;;;6.21;94.27;99205.63;7396853;19;20014;-66
2022/01/04 06:35:25;;;;;;;3.40;2.38;;;;;;;6.21;94.19;99197.81;7395760;19;20040;-66
2022/01/04 06:37:53;;;;;;;2.28;1.55;;;;;;;6.20;94.11;99202.16;7396031;19;20074;-66
2022/01/04 06:40:21;;;;;;;3.28;1.70;;;;;;;6.21;94.22;99206.47;7396313;19;20010;-66
2022/01/04 06:42:50;;;;;;;3.55;1.58;;;;;;;6.21;94.14;99200.41;7395320;19;20036;-65
2022/01/04 06:45:18;;;;;;;3.25;1.45;;;;;;;6.20;93.86;99194.34;7396543;19;20018;-66
2022/01/04 06:47:46;;;;;;;1.67;1.30;;;;;;;6.20;93.70;99194.34;7395727;19;20442;-66
2022/01/04 06:50:18;;;;;;;4.13;1.50;;;;;;;6.20;93.77;99194.34;7396218;19;20365;-66
2022/01/04 06:52:46;;;;;;;3.90;1.95;;;;;;;6.20;93.81;99189.13;7395938;19;20386;-66
2022/01/04 06:55:15;;;;;;;4.47;2.30;;;;;;;6.19;93.71;99177.00;7395774;19;20019;-67
2022/01/04 06:57:43;;;;;;;3.83;2.30;;;;;;;6.19;93.65;99177.88;7396470;19;20074;-66
2022/01/04 07:00:13;;;;;;;5.25;2.50;;;;;;;6.19;93.62;99182.19;7397005;19;20019;-67
2022/01/04 07:02:41;;;;;;;3.90;2.00;;;;;;;6.21;93.93;99180.41;7395841;19;20037;-68
2022/01/04 07:05:10;;;;;;;3.28;1.90;;;;;;;6.20;93.57;99181.31;7395078;19;20389;-68
2022/01/04 07:07:41;;;;;;;2.55;1.52;;;;;;;6.19;93.72;99182.19;7395147;19;20109;-68
2022/01/04 07:10:10;;;;;;;1.92;1.50;;;;;;;6.20;93.50;99183.91;7395216;19;20487;-68
2022/01/04 07:12:38;;;;;;;3.38;1.58;;;;;;;6.20;93.53;99186.53;7394652;19;20026;-68
2022/01/04 07:15:08;;;;;;;3.38;1.58;;;;;;;6.19;93.45;99185.69;7394349;19;20349;-67
2022/01/04 07:17:41;;;;;;;2.25;1.40;;;;;;;6.19;93.43;99187.41;7395003;19;20018;-68
2022/01/04 07:20:11;;;;;;;16.40;6.93;;;;;;;6.17;93.25;99177.03;7395559;19;20010;-67
2022/01/04 07:22:42;;;;;;;8.32;5.78;;;;;;;6.18;93.61;99183.13;7395371;19;20015;-68
2022/01/04 07:25:11;;;;;;;2.13;1.63;;;;;;;6.15;93.33;99184.03;7395468;19;20018;-68
2022/01/04 07:27:40;;;;;;;2.97;1.80;;;;;;;6.18;93.69;99191.78;7394368;19;20044;-68
2022/01/04 07:30:09;;;;;;;4.10;2.03;;;;;;;6.19;93.23;99187.41;7395006;19;20040;-67
2022/01/04 07:32:37;;;;;;;1.73;1.48;;;;;;;6.20;93.44;99191.72;7394996;19;20015;-67
2022/01/04 07:35:07;;;;;;;4.20;1.92;;;;;;;6.21;93.42;99183.03;7394411;19;20059;-67
2022/01/04 07:37:35;;;;;;;1.83;1.60;;;;;;;6.22;93.42;99176.06;7394144;19;20018;-67
2022/01/04 07:40:07;;;;;;;3.38;2.00;;;;;;;6.23;93.61;99170.81;7394648;19;20407;-66
2022/01/04 07:42:35;;;;;;;2.55;1.65;;;;;;;6.22;93.50;99169.09;7394055;19;20018;-67
2022/01/04 07:45:04;;;;;;;2.78;1.73;;;;;;;6.26;93.57;99172.47;7394672;19;20040;-67
2022/01/04 07:47:32;;;;;;;2.30;1.58;;;;;;;6.27;93.47;99168.97;7394555;19;20025;-67
2022/01/04 07:50:01;;;;;;;3.20;1.77;;;;;;;6.28;93.58;99166.34;7394614;19;20019;-67
2022/01/04 07:52:29;;;;;;;8.07;3.45;;;;;;;6.28;93.54;99161.13;7394446;19;20014;-67
2022/01/04 07:55:04;;;;;;;5.25;3.05;;;;;;;6.29;93.16;99160.22;7396279;19;20479;-68
2022/01/04 07:57:35;;;;;;;3.47;2.55;;;;;;;6.29;93.48;99154.16;7397232;19;20513;-66
2022/01/04 08:00:03;;;;;;;3.70;1.92;;;;;;;6.30;93.46;99148.88;7394790;19;20026;-66
2022/01/04 08:02:32;;;;;;;4.80;2.53;;;;;;;6.31;93.59;99144.56;7394611;19;20018;-66
2022/01/04 08:05:00;;;;;;;4.60;2.03;;;;;;;6.32;93.50;99136.69;7394054;19;20041;-67
2022/01/04 08:07:29;;;;;;;2.10;1.90;;;;;;;6.34;93.56;99139.22;7394395;19;20037;-67
2022/01/04 08:09:57;;;;;;;1.63;1.52;;;;;;;6.33;93.37;99133.19;7394304;19;20525;-67
2022/01/04 08:12:25;;;;;;;4.45;2.22;;;;;;;6.34;93.40;99134.03;7393670;19;20402;-66
2022/01/04 08:14:57;;;;;;;5.20;2.10;;;;;;;6.34;93.56;99136.63;7393634;19;20041;-67
2022/01/04 08:17:25;;;;;;;7.07;3.20;;;;;;;6.34;93.63;99134.91;7394452;19;20025;-71
2022/01/04 08:19:53;;;;;;;4.40;2.25;;;;;;;6.33;93.73;99133.19;7394110;19;20006;-67
2022/01/04 08:22:21;;;;;;;3.70;2.08;;;;;;;6.33;93.68;99122.75;7395393;19;20015;-66
2022/01/04 08:24:49;;;;;;;4.43;2.03;;;;;;;6.32;93.62;99125.41;7401088;19;20360;-65
2022/01/04 08:27:24;;;;;;;2.75;1.75;;;;;;;6.29;93.71;99118.56;7400986;19;20386;-65
2022/01/04 08:29:52;;;;;;;4.25;1.83;;;;;;;6.29;93.54;99109.88;7398143;19;20362;-66
2022/01/04 08:32:23;;;;;;;3.95;2.25;;;;;;;6.29;93.53;99120.28;7401239;19;20040;-65
2022/01/04 08:34:52;;;;;;;2.55;1.58;;;;;;;6.29;93.80;99104.66;7400798;19;20010;-65
2022/01/04 08:37:21;;;;;;;2.63;1.70;;;;;;;6.28;93.81;99108.16;7400400;19;20378;-65
2022/01/04 08:39:49;;;;;;;4.78;2.40;;;;;;;6.28;94.12;99106.44;7400804;19;20010;-65
2022/01/04 08:42:17;;;;;;;2.53;1.50;;;;;;;6.28;94.16;99110.75;7400772;19;20018;-65
2022/01/04 08:44:45;;;;;;;5.15;2.03;;;;;;;6.28;94.33;99103.81;7397482;19;20501;-65
2022/01/04 08:47:14;;;;;;;2.88;1.33;;;;;;;6.29;94.06;99108.13;7400764;19;20395;-65
2022/01/04 08:49:45;;;;;;;3.15;1.70;;;;;;;6.30;94.49;99095.94;7397634;19;20483;-65
2022/01/04 08:52:14;;;;;;;5.13;2.25;;;;;;;6.29;94.45;99102.94;7400567;19;20037;-65
2022/01/04 08:54:42;;;;;;;2.88;2.10;;;;;;;6.32;94.37;99094.16;7399717;19;20503;-65
2022/01/04 08:57:10;;;;;;;4.05;2.65;;;;;;;6.33;94.50;99096.72;7398799;19;20019;-65
2022/01/04 08:59:39;;;;;;;4.50;2.20;;;;;;;6.36;94.72;99093.16;7400570;19;20013;-68
2022/01/04 09:02:07;;;;;;;4.75;1.80;;;;;;;6.38;94.68;99088.75;7399294;19;20014;-65
2022/01/04 09:04:35;;;;;;;1.85;1.50;;;;;;;6.41;94.64;99086.06;7399646;19;20021;-65
2022/01/04 09:07:07;;;;;;;1.88;1.45;;;;;;;6.44;94.50;99091.16;7397408;19;20014;-65
2022/01/04 09:09:35;;;;;;;5.18;1.60;;;;;;;6.45;94.33;99085.06;7397211;19;20014;-65
2022/01/04 09:12:03;;;;;;;4.03;1.52;;;;;;;6.48;94.55;99089.31;7399547;19;20015;-65
2022/01/04 09:14:42;;;;;;;3.92;1.67;;;;;;;6.51;94.55;99076.22;7399580;19;20041;-65
2022/01/04 09:19:52;;;;;;;5.75;3.00;;;;;;;6.57;94.48;99070.81;7399548;19;20471;-65
2022/01/04 09:22:23;;;;;;;3.88;2.65;;;;;;;6.60;94.37;99067.25;7398932;19;20518;-65
2022/01/04 09:24:51;;;;;;;4.40;2.90;;;;;;;6.62;94.42;99055.88;7398739;19;20540;-65
2022/01/04 09:27:19;;;;;;;4.70;3.22;;;;;;;6.64;94.21;99058.41;7399057;19;20037;-65
2022/01/04 09:29:49;;;;;;;2.70;1.95;;;;;;;6.66;94.46;99049.63;7396795;19;20019;-64
2022/01/04 09:32:17;;;;;;;2.00;1.60;;;;;;;6.68;94.39;99052.19;7398093;19;20015;-65
2022/01/04 09:34:46;;;;;;;3.30;1.75;;;;;;;6.71;94.22;99051.25;7396837;19;20040;-65
2022/01/04 09:37:15;;;;;;;23.23;11.63;;;;;;;6.73;94.07;99052.06;7398683;19;20014;-65
2022/01/04 09:39:46;;;;;;;8.70;4.80;;;;;;;6.75;94.10;99050.22;7398661;19;20036;-65
2022/01/04 09:42:14;;;;;;;5.35;2.35;;;;;;;6.76;94.20;99036.28;7398617;19;20011;-64
2022/01/04 09:44:43;;;;;;;3.33;1.50;;;;;;;6.77;94.18;99033.63;7396323;19;20006;-64
2022/01/04 09:47:11;;;;;;;2.17;1.73;;;;;;;6.78;93.77;99034.50;7398388;19;20014;-65
2022/01/04 09:49:39;;;;;;;4.28;1.83;;;;;;;6.79;94.05;99031.00;7396437;19;20479;-65
2022/01/04 09:52:09;;;;;;;5.93;1.80;;;;;;;6.80;93.86;99022.28;7398347;19;20022;-65
2022/01/04 09:54:40;;;;;;;2.65;2.03;;;;;;;6.78;94.05;99003.22;7398327;19;20011;-64
2022/01/04 09:57:11;;;;;;;3.55;2.92;;;;;;;6.85;94.08;99012.53;7396020;19;20018;-65
2022/01/04 09:59:39;;;;;;;3.17;2.17;;;;;;;6.85;94.07;99012.53;7397662;19;20497;-64
2022/01/04 10:02:16;;;;;;;4.03;2.15;;;;;;;6.86;94.06;99016.81;7398212;19;20019;-64
2022/01/04 10:04:45;;;;;;;7.75;2.53;;;;;;;6.88;94.01;99006.38;7397624;19;20483;-64
2022/01/04 10:07:13;;;;;;;5.20;3.83;;;;;;;6.90;93.93;98996.72;7397699;19;20032;-64
2022/01/04 10:09:45;;;;;;;26.35;14.60;;;;;;;6.90;94.04;98988.91;7396322;19;20019;-64
2022/01/04 10:12:17;;;;;;;6.28;3.55;;;;;;;6.91;93.85;98977.56;7397795;19;20021;-64
2022/01/04 10:14:47;;;;;;;5.28;3.55;;;;;;;6.94;93.87;98980.09;7398073;19;20015;-68
2022/01/04 10:17:18;;;;;;;4.43;2.47;;;;;;;6.93;93.73;98981.84;7396676;19;20479;-65
2022/01/04 10:19:47;;;;;;;3.25;2.83;;;;;;;6.95;94.00;98973.94;7396770;19;20010;-64
2022/01/04 10:22:19;;;;;;;4.70;2.53;;;;;;;6.95;93.91;98967.00;7396077;19;20010;-65
2022/01/04 10:24:49;;;;;;;3.00;2.70;;;;;;;6.96;93.93;98965.22;7396221;19;20033;-65
2022/01/04 10:27:31;;;;;;;3.33;2.58;;;;;;;6.96;93.95;98963.50;7397540;19;20021;-64
2022/01/04 10:30:16;;;;;;;4.35;3.33;;;;;;;6.98;93.93;98968.66;7395862;19;20052;-69
2022/01/04 10:32:46;;;;;;;14.55;8.25;;;;;;;6.99;94.10;98972.97;7396882;19;20014;-65
2022/01/04 10:35:22;;;;;;;8.20;4.28;;;;;;;7.00;94.26;98964.19;7395432;19;20501;-66
2022/01/04 10:37:51;;;;;;;6.00;3.60;;;;;;;7.01;94.28;98953.75;7398238;19;20126;-66
2022/01/04 10:40:19;;;;;;;6.15;3.97;;;;;;;7.04;94.37;98949.31;7396490;19;20019;-66
2022/01/04 10:42:50;;;;;;;5.50;4.22;;;;;;;7.04;94.55;98951.91;7396173;19;20501;-66
2022/01/04 10:45:37;;;;;;;9.80;5.80;;;;;;;7.05;94.85;98946.66;7393223;19;20346;-66
2022/01/04 10:48:17;;;;;;;14.20;8.50;;;;;;;7.06;95.03;98945.72;7395794;19;20475;-65
2022/01/04 10:50:48;;;;;;;15.63;9.52;;;;;;;7.04;95.39;98942.34;7395014;19;20018;-65
2022/01/04 10:53:19;;;;;;;16.23;10.02;;;;;;;7.04;95.88;98946.69;7396973;19;20034;-64
2022/01/04 10:55:50;;;;;;;11.10;8.50;;;;;;;7.04;96.14;98941.47;7396058;19;20015;-65
2022/01/04 10:58:35;;;;;;;10.05;7.18;;;;;;;7.03;96.42;98938.03;7397195;19;20023;-62
2022/01/04 11:01:06;;;;;;;25.27;14.98;;;;;;;7.01;96.56;98947.66;7396776;19;20014;-65
2022/01/04 11:03:36;;;;;;;20.35;10.45;;;;;;;7.00;96.86;98949.44;7396454;19;20037;-65
2022/01/04 11:06:10;;;;;;;14.73;9.55;;;;;;;6.98;97.29;98946.00;7396145;19;20125;-65
2022/01/04 11:08:39;;;;;;;15.40;10.27;;;;;;;6.95;97.35;98940.94;7396613;19;20018;-65
2022/01/04 11:11:07;;;;;;;17.02;11.05;;;;;;;6.90;97.69;98934.16;7395818;19;20019;-65
2022/01/04 11:13:38;;;;;;;30.52;17.70;;;;;;;6.94;97.83;98947.03;7394839;19;20329;-69
2022/01/04 11:16:08;;;;;;;177.13;111.07;;;;;;;6.94;97.96;98947.03;7393454;19;20386;-65
2022/01/04 11:18:40;;;;;;;58.33;28.08;;;;;;;6.95;98.17;98946.13;7395150;19;20018;-65
2022/01/04 11:21:11;;;;;;;43.53;24.98;;;;;;;6.95;98.42;98938.31;7395901;19;20010;-65
2022/01/04 11:23:41;;;;;;;17.52;12.35;;;;;;;6.95;98.71;98943.53;7395842;19;20056;-66
2022/01/04 11:26:12;;;;;;;18.27;12.63;;;;;;;6.93;98.93;98934.91;7394064;19;20015;-66
2022/01/04 11:28:46;;;;;;;16.25;10.93;;;;;;;6.94;98.99;98933.16;7395218;19;20011;-66
2022/01/04 11:31:25;;;;;;;15.68;10.90;;;;;;;6.93;99.09;98927.09;7394254;19;20085;-65
2022/01/04 11:34:00;;;;;;;13.68;10.15;;;;;;;6.91;99.08;98928.88;7394408;19;20018;-66
2022/01/04 11:36:31;;;;;;;13.43;9.18;;;;;;;6.90;99.43;98921.13;7393117;19;20023;-65
2022/01/04 11:38:59;;;;;;;13.13;9.75;;;;;;;6.88;99.58;98910.75;7395022;19;20018;-66
2022/01/04 11:41:41;;;;;;;14.77;11.05;;;;;;;6.87;99.59;98903.84;7395043;19;20010;-65
2022/01/04 11:44:22;;;;;;;17.08;11.52;;;;;;;6.85;99.89;98896.06;7393663;19;20348;-65
2022/01/04 11:47:03;;;;;;;16.13;11.52;;;;;;;6.84;99.99;98877.88;7393026;19;20010;-65
2022/01/04 11:49:32;;;;;;;15.93;10.43;;;;;;;6.83;99.94;98874.41;7394542;19;20010;-66
2022/01/04 11:52:00;;;;;;;14.13;10.38;;;;;;;6.81;100.00;98872.78;7394110;19;20384;-66
2022/01/04 11:54:32;;;;;;;15.00;8.88;;;;;;;6.80;100.00;98863.28;7394674;19;20036;-66
2022/01/04 11:57:03;;;;;;;17.10;10.25;;;;;;;6.78;100.00;98862.47;7394555;19;20025;-67
2022/01/04 11:59:38;;;;;;;13.90;8.68;;;;;;;6.75;100.00;98855.63;7400878;19;20349;-66